Time;durP1;ratioP1;P1;durP2;ratioP2;P2;SDS_P1;SDS_P2;PMS_P1;PMS_P2;Temp;Humidity;BMP_temperature;BMP_pressure;BME280_temperature;BME280_humidity;BME280_pressure;Samples;Min_cycle;Max_cycle;Signal;HPM_P1;HPM_P2
2023/08/13 00:01:07;;;;;;;2.55;1.50;;;;;;;;;;5010469;28;20120;-76
2023/08/13 00:03:32;;;;;;;2.58;1.70;;;;;;;;;;5026719;28;20125;-76
2023/08/13 00:06:00;;;;;;;2.95;1.40;;;;;;;;;;5010090;28;20034;-76
2023/08/13 00:08:25;;;;;;;3.30;1.83;;;;;;;;;;5027220;28;20041;-76
2023/08/13 00:10:51;;;;;;;1.60;1.48;;;;;;;;;;5026295;28;20018;-76
2023/08/13 00:13:16;;;;;;;5.60;1.73;;;;;;;;;;5010219;28;20018;-76
2023/08/13 00:15:42;;;;;;;2.78;1.30;;;;;;;;;;5011751;28;20057;-76
2023/08/13 00:18:08;;;;;;;3.95;1.40;;;;;;;;;;5026496;28;20053;-76
2023/08/13 00:20:34;;;;;;;5.97;1.50;;;;;;;;;;5011315;28;20069;-76
2023/08/13 00:23:00;;;;;;;7.38;1.73;;;;;;;;;;5011775;28;20091;-76
2023/08/13 00:25:26;;;;;;;2.50;1.75;;;;;;;;;;5011472;28;20486;-76
2023/08/13 00:27:52;;;;;;;2.53;1.67;;;;;;;;;;5010176;28;20116;-76
2023/08/13 00:30:18;;;;;;;4.32;2.55;;;;;;;;;;5009768;28;20053;-75
2023/08/13 00:32:43;;;;;;;5.03;1.77;;;;;;;;;;5009432;28;20084;-76
2023/08/13 00:35:09;;;;;;;1.65;1.52;;;;;;;;;;5009738;28;20030;-76
2023/08/13 00:37:38;;;;;;;9.00;1.80;;;;;;;;;;5026188;28;20028;-76
2023/08/13 00:40:04;;;;;;;1.92;1.70;;;;;;;;;;5009510;28;20034;-76
2023/08/13 00:42:30;;;;;;;3.85;1.40;;;;;;;;;;5011059;28;20133;-76
2023/08/13 00:44:55;;;;;;;1.88;1.70;;;;;;;;;;5009588;28;20108;-76
2023/08/13 00:47:21;;;;;;;2.15;1.45;;;;;;;;;;5010915;28;20052;-77
2023/08/13 00:49:46;;;;;;;3.28;1.30;;;;;;;;;;5009598;28;20064;-76
2023/08/13 00:52:12;;;;;;;2.97;1.67;;;;;;;;;;5010659;28;20427;-76
2023/08/13 00:54:37;;;;;;;2.00;1.55;;;;;;;;;;5009506;28;20033;-77
2023/08/13 00:57:03;;;;;;;2.20;1.52;;;;;;;;;;5009100;28;20029;-76
2023/08/13 00:59:31;;;;;;;1.98;1.42;;;;;;;;;;5011077;28;20581;-75
2023/08/13 01:01:56;;;;;;;2.25;1.80;;;;;;;;;;5010782;28;20025;-75
2023/08/13 01:04:22;;;;;;;3.13;1.60;;;;;;;;;;5012040;28;20026;-76
2023/08/13 01:07:11;;;;;;;1.95;1.73;;;;;;;;;;5010810;28;20033;-76
2023/08/13 01:09:47;;;;;;;1.90;1.70;;;;;;;;;;5010532;28;20076;-74
2023/08/13 01:12:23;;;;;;;1.77;1.52;;;;;;;;;;5009156;28;20144;-76
2023/08/13 01:15:00;;;;;;;3.80;1.65;;;;;;;;;;5010683;28;20112;-77
2023/08/13 01:17:26;;;;;;;2.50;1.70;;;;;;;;;;5010818;28;20033;-76
2023/08/13 01:19:51;;;;;;;2.20;1.63;;;;;;;;;;5010910;28;20030;-76
2023/08/13 01:22:25;;;;;;;5.30;2.10;;;;;;;;;;5025418;28;20026;-75
2023/08/13 01:24:51;;;;;;;5.03;2.15;;;;;;;;;;5025172;28;20037;-76
2023/08/13 01:27:37;;;;;;;2.92;1.60;;;;;;;;;;5010586;28;20091;-75
2023/08/13 01:30:14;;;;;;;2.05;1.60;;;;;;;;;;5008114;28;20025;-76
2023/08/13 01:32:48;;;;;;;2.63;1.92;;;;;;;;;;5011240;28;20071;-76
2023/08/13 01:35:17;;;;;;;2.60;1.80;;;;;;;;;;5011624;28;20116;-76
2023/08/13 01:37:43;;;;;;;2.30;2.08;;;;;;;;;;5026554;28;20026;-76
2023/08/13 01:40:10;;;;;;;3.38;2.30;;;;;;;;;;5011153;28;20072;-76
2023/08/13 01:42:37;;;;;;;2.05;1.90;;;;;;;;;;5009926;28;20403;-76
2023/08/13 01:45:03;;;;;;;2.92;2.08;;;;;;;;;;5010643;28;20026;-76
2023/08/13 01:47:30;;;;;;;2.97;1.80;;;;;;;;;;4994551;28;20475;-76
2023/08/13 01:49:56;;;;;;;2.95;1.77;;;;;;;;;;5010973;28;20543;-77
2023/08/13 01:52:21;;;;;;;3.67;1.92;;;;;;;;;;5012195;28;20026;-77
2023/08/13 01:54:47;;;;;;;3.65;1.85;;;;;;;;;;5012025;28;20383;-76
2023/08/13 01:57:12;;;;;;;2.15;1.77;;;;;;;;;;5026666;28;20466;-75
2023/08/13 01:59:37;;;;;;;5.50;2.17;;;;;;;;;;5027246;28;20117;-75
2023/08/13 02:02:03;;;;;;;3.78;1.92;;;;;;;;;;5012747;28;20501;-76
2023/08/13 02:04:29;;;;;;;3.03;1.70;;;;;;;;;;5028582;28;20034;-74
2023/08/13 02:06:54;;;;;;;3.47;1.85;;;;;;;;;;5008913;28;20388;-76
2023/08/13 02:09:20;;;;;;;3.25;1.67;;;;;;;;;;5009891;28;20041;-76
2023/08/13 02:11:45;;;;;;;4.78;1.67;;;;;;;;;;5009990;28;20025;-76
2023/08/13 02:14:11;;;;;;;2.35;1.83;;;;;;;;;;5008668;28;20061;-76
2023/08/13 02:16:36;;;;;;;3.13;2.03;;;;;;;;;;5010126;28;20030;-76
2023/08/13 02:19:02;;;;;;;2.85;1.88;;;;;;;;;;5008534;28;20109;-75
2023/08/13 02:21:27;;;;;;;3.50;2.22;;;;;;;;;;5010098;28;20336;-76
2023/08/13 02:23:53;;;;;;;2.85;1.80;;;;;;;;;;5010200;28;20158;-77
2023/08/13 02:26:18;;;;;;;5.47;2.15;;;;;;;;;;5008186;28;20129;-76
2023/08/13 02:28:45;;;;;;;3.67;2.15;;;;;;;;;;5008631;28;20057;-76
2023/08/13 02:31:11;;;;;;;5.95;1.80;;;;;;;;;;5010122;28;20109;-77
2023/08/13 02:33:36;;;;;;;2.13;1.70;;;;;;;;;;5008620;28;20093;-76
2023/08/13 02:36:02;;;;;;;5.80;2.30;;;;;;;;;;4992782;28;20038;-76
2023/08/13 02:38:28;;;;;;;4.10;1.88;;;;;;;;;;5010925;28;20467;-76
2023/08/13 02:40:53;;;;;;;3.70;2.40;;;;;;;;;;4993339;28;20038;-76
2023/08/13 02:43:19;;;;;;;3.95;2.05;;;;;;;;;;5012600;28;20022;-76
2023/08/13 02:45:44;;;;;;;3.40;2.05;;;;;;;;;;5013059;28;20041;-76
2023/08/13 02:48:10;;;;;;;3.42;2.22;;;;;;;;;;5014330;28;20102;-76
2023/08/13 02:50:36;;;;;;;3.83;1.90;;;;;;;;;;5013428;28;20025;-76
2023/08/13 02:53:02;;;;;;;2.00;1.80;;;;;;;;;;5016117;28;20022;-75
2023/08/13 02:55:27;;;;;;;4.18;1.88;;;;;;;;;;5017838;28;20056;-76
2023/08/13 02:57:53;;;;;;;9.63;2.25;;;;;;;;;;5014794;28;20033;-76
2023/08/13 03:00:21;;;;;;;13.88;3.38;;;;;;;;;;5012926;28;20093;-76
2023/08/13 03:02:46;;;;;;;4.68;2.65;;;;;;;;;;5012965;28;20103;-77
2023/08/13 03:05:12;;;;;;;2.88;1.92;;;;;;;;;;5012967;28;20045;-76
2023/08/13 03:07:37;;;;;;;2.75;2.10;;;;;;;;;;4995203;28;20057;-76
2023/08/13 03:10:03;;;;;;;3.47;2.60;;;;;;;;;;5028366;28;20124;-77
2023/08/13 03:12:29;;;;;;;4.57;2.40;;;;;;;;;;5013710;28;20029;-76
2023/08/13 03:14:54;;;;;;;4.55;2.10;;;;;;;;;;5028005;28;20033;-75
2023/08/13 03:17:20;;;;;;;3.33;2.33;;;;;;;;;;5012361;28;20025;-75
2023/08/13 03:19:46;;;;;;;5.43;2.40;;;;;;;;;;5011396;28;20025;-76
2023/08/13 03:22:11;;;;;;;3.92;2.03;;;;;;;;;;5027444;28;20033;-75
2023/08/13 03:24:37;;;;;;;2.78;2.30;;;;;;;;;;5012441;28;20026;-76
2023/08/13 03:27:02;;;;;;;5.78;2.20;;;;;;;;;;4995081;28;20068;-77
2023/08/13 03:29:28;;;;;;;3.72;2.42;;;;;;;;;;5028480;28;20022;-76
2023/08/13 03:31:53;;;;;;;5.85;2.40;;;;;;;;;;5012793;28;20085;-77
2023/08/13 03:34:19;;;;;;;3.78;2.30;;;;;;;;;;5012149;28;20065;-76
2023/08/13 03:36:44;;;;;;;7.00;2.42;;;;;;;;;;5027126;28;20032;-75
2023/08/13 03:39:10;;;;;;;3.97;2.40;;;;;;;;;;5028220;28;20489;-76
2023/08/13 03:41:35;;;;;;;3.25;2.45;;;;;;;;;;5011295;28;20034;-76
2023/08/13 03:44:01;;;;;;;3.13;2.30;;;;;;;;;;5011165;28;20025;-77
2023/08/13 03:46:26;;;;;;;2.35;1.98;;;;;;;;;;5012509;28;20506;-76
2023/08/13 03:48:52;;;;;;;3.03;2.40;;;;;;;;;;5011319;28;20022;-76
2023/08/13 03:51:17;;;;;;;3.92;2.47;;;;;;;;;;5011076;28;20475;-76
2023/08/13 03:53:43;;;;;;;3.15;2.22;;;;;;;;;;5030378;28;20497;-76
2023/08/13 03:56:08;;;;;;;4.38;2.50;;;;;;;;;;5031280;28;20037;-76
2023/08/13 03:58:35;;;;;;;3.33;2.15;;;;;;;;;;5032370;28;20029;-76
2023/08/13 04:01:05;;;;;;;3.13;2.70;;;;;;;;;;5014077;28;20250;-77
2023/08/13 04:03:30;;;;;;;3.05;2.75;;;;;;;;;;5013951;28;20031;-77
2023/08/13 04:05:56;;;;;;;3.15;2.85;;;;;;;;;;5031974;28;20017;-76
2023/08/13 04:08:21;;;;;;;5.35;2.70;;;;;;;;;;5031123;28;20021;-76
2023/08/13 04:10:47;;;;;;;3.28;2.80;;;;;;;;;;5030286;28;20053;-76
2023/08/13 04:13:13;;;;;;;3.63;2.55;;;;;;;;;;5013284;28;20397;-75
2023/08/13 04:15:38;;;;;;;6.78;3.20;;;;;;;;;;5031264;28;20537;-75
2023/08/13 04:18:04;;;;;;;4.00;2.75;;;;;;;;;;5029822;28;20025;-76
2023/08/13 04:20:30;;;;;;;3.00;2.63;;;;;;;;;;5030408;28;20033;-75
2023/08/13 04:22:55;;;;;;;5.47;2.78;;;;;;;;;;5031520;28;20052;-77
2023/08/13 04:25:21;;;;;;;3.53;2.35;;;;;;;;;;5031593;28;20132;-76
2023/08/13 04:27:46;;;;;;;5.43;2.80;;;;;;;;;;5046804;28;20080;-77
2023/08/13 04:30:12;;;;;;;2.80;2.50;;;;;;;;;;5030815;28;20026;-75
2023/08/13 04:32:38;;;;;;;3.78;2.53;;;;;;;;;;5019897;28;20549;-76
2023/08/13 04:35:05;;;;;;;7.43;2.80;;;;;;;;;;4993353;28;20038;-77
2023/08/13 04:37:30;;;;;;;3.08;2.50;;;;;;;;;;5017662;28;20537;-76
2023/08/13 04:39:57;;;;;;;3.05;2.20;;;;;;;;;;5030303;28;20043;-75
2023/08/13 04:42:23;;;;;;;3.63;2.85;;;;;;;;;;5028882;28;20057;-76
2023/08/13 04:44:48;;;;;;;5.47;2.83;;;;;;;;;;5029512;28;20060;-76
2023/08/13 04:47:14;;;;;;;47.22;7.85;;;;;;;;;;5029674;28;20041;-76
2023/08/13 04:49:39;;;;;;;10.32;3.33;;;;;;;;;;5029668;28;20124;-75
2023/08/13 04:52:05;;;;;;;7.18;2.80;;;;;;;;;;5030406;28;20102;-77
2023/08/13 04:54:30;;;;;;;3.67;2.40;;;;;;;;;;5029229;28;20087;-76
2023/08/13 04:56:56;;;;;;;7.35;3.03;;;;;;;;;;5030213;28;20079;-77
2023/08/13 04:59:21;;;;;;;6.80;4.65;;;;;;;;;;5029717;28;20049;-76
2023/08/13 05:01:47;;;;;;;2.70;2.50;;;;;;;;;;5029098;28;20075;-76
2023/08/13 05:04:13;;;;;;;5.72;2.70;;;;;;;;;;5029140;28;20029;-77
2023/08/13 05:06:38;;;;;;;4.15;2.40;;;;;;;;;;5030131;28;20806;-76
2023/08/13 05:09:04;;;;;;;7.20;3.15;;;;;;;;;;5030527;28;20029;-77
2023/08/13 05:11:29;;;;;;;4.95;3.15;;;;;;;;;;5028580;28;20040;-77
2023/08/13 05:13:55;;;;;;;2.20;2.00;;;;;;;;;;5028693;28;20056;-77
2023/08/13 05:16:20;;;;;;;6.38;3.50;;;;;;;;;;5028843;28;20033;-77
2023/08/13 05:18:46;;;;;;;3.78;2.88;;;;;;;;;;5030652;28;20021;-77
2023/08/13 05:21:12;;;;;;;2.33;2.00;;;;;;;;;;5028826;28;20029;-76
2023/08/13 05:23:38;;;;;;;3.67;2.20;;;;;;;;;;5029612;28;20084;-77
2023/08/13 05:26:04;;;;;;;4.40;3.80;;;;;;;;;;5028473;28;20413;-76
2023/08/13 05:28:29;;;;;;;2.83;2.47;;;;;;;;;;5028513;28;20033;-76
2023/08/13 05:30:55;;;;;;;3.42;2.72;;;;;;;;;;5028814;28;20028;-76
2023/08/13 05:33:20;;;;;;;2.95;2.53;;;;;;;;;;5028631;28;20025;-76
2023/08/13 05:35:46;;;;;;;3.30;2.90;;;;;;;;;;5028895;28;20032;-77
2023/08/13 05:38:11;;;;;;;2.85;2.25;;;;;;;;;;5030416;28;20053;-76
2023/08/13 05:40:37;;;;;;;4.72;2.95;;;;;;;;;;5030291;28;20029;-77
2023/08/13 05:43:03;;;;;;;4.38;3.00;;;;;;;;;;5029021;28;20017;-77
2023/08/13 05:45:28;;;;;;;2.80;2.30;;;;;;;;;;5028640;28;20622;-77
2023/08/13 05:47:55;;;;;;;4.82;2.80;;;;;;;;;;5029344;28;20021;-76
2023/08/13 05:50:20;;;;;;;6.78;2.97;;;;;;;;;;5029851;28;20029;-76
2023/08/13 05:52:46;;;;;;;3.20;2.25;;;;;;;;;;5030286;28;20083;-76
2023/08/13 05:55:11;;;;;;;5.50;2.83;;;;;;;;;;5030474;28;20125;-75
2023/08/13 05:57:37;;;;;;;4.55;3.10;;;;;;;;;;5030401;28;20057;-76
2023/08/13 06:00:09;;;;;;;3.13;2.33;;;;;;;;;;5030813;28;20147;-75
2023/08/13 06:02:35;;;;;;;4.43;2.53;;;;;;;;;;5031548;28;20119;-75
2023/08/13 06:05:01;;;;;;;5.07;2.67;;;;;;;;;;5032342;28;20049;-75
2023/08/13 06:07:27;;;;;;;3.97;2.63;;;;;;;;;;5030361;28;20026;-76
2023/08/13 06:09:53;;;;;;;3.55;2.65;;;;;;;;;;5032164;28;20025;-75
2023/08/13 06:12:18;;;;;;;4.10;2.30;;;;;;;;;;5013711;28;20028;-77
2023/08/13 06:14:44;;;;;;;4.95;2.88;;;;;;;;;;5031511;28;20478;-76
2023/08/13 06:17:09;;;;;;;9.07;2.55;;;;;;;;;;5031614;28;20040;-77
2023/08/13 06:19:35;;;;;;;4.00;2.63;;;;;;;;;;5032638;28;20029;-76
2023/08/13 06:22:00;;;;;;;2.60;2.35;;;;;;;;;;5032557;28;20022;-77
2023/08/13 06:24:26;;;;;;;3.72;2.53;;;;;;;;;;5033424;28;20510;-76
2023/08/13 06:26:53;;;;;;;5.70;3.30;;;;;;;;;;5032060;28;20057;-76
2023/08/13 06:29:18;;;;;;;4.50;2.65;;;;;;;;;;5032115;28;20037;-77
2023/08/13 06:31:44;;;;;;;3.50;3.00;;;;;;;;;;5033875;28;20047;-76
2023/08/13 06:34:09;;;;;;;3.75;2.90;;;;;;;;;;5033671;28;20063;-76
2023/08/13 06:36:35;;;;;;;6.22;2.95;;;;;;;;;;5033601;28;20029;-77
2023/08/13 06:39:01;;;;;;;2.67;2.47;;;;;;;;;;5034467;28;20033;-76
2023/08/13 06:41:26;;;;;;;4.43;3.00;;;;;;;;;;5034291;28;20033;-77
2023/08/13 06:43:52;;;;;;;5.55;2.95;;;;;;;;;;5034367;28;20466;-74
2023/08/13 06:46:17;;;;;;;5.22;2.72;;;;;;;;;;5035042;28;20454;-77
2023/08/13 06:48:43;;;;;;;5.07;2.83;;;;;;;;;;5017685;28;20090;-75
2023/08/13 06:51:11;;;;;;;6.68;3.08;;;;;;;;;;5033435;28;20049;-75
2023/08/13 06:53:37;;;;;;;2.90;2.45;;;;;;;;;;5032595;28;20492;-75
2023/08/13 06:56:03;;;;;;;3.72;2.40;;;;;;;;;;5032144;28;20041;-76
2023/08/13 06:58:28;;;;;;;4.07;2.97;;;;;;;;;;5033321;28;20746;-76
2023/08/13 07:00:54;;;;;;;3.40;2.80;;;;;;;;;;5014829;28;20051;-77
2023/08/13 07:03:48;;;;;;;;;;;;;;;;;;;;;
2023/08/13 07:09:10;;;;;;;5.28;3.00;;;;;;;;;;4959279;29;20039;-78
2023/08/13 07:11:45;;;;;;;4.90;2.70;;;;;;;;;;5035372;28;20044;-77
2023/08/13 07:14:17;;;;;;;3.17;2.72;;;;;;;;;;5025091;28;20462;-77
2023/08/13 07:17:06;;;;;;;4.22;3.30;;;;;;;;;;5050140;28;20041;-77
2023/08/13 07:19:33;;;;;;;4.68;3.08;;;;;;;;;;5031501;28;20024;-78
2023/08/13 07:22:03;;;;;;;6.82;3.30;;;;;;;;;;5021412;28;20733;-77
2023/08/13 07:24:37;;;;;;;7.82;2.78;;;;;;;;;;5016600;28;20037;-75
2023/08/13 07:27:12;;;;;;;3.50;2.42;;;;;;;;;;5030519;28;20049;-77
2023/08/13 07:29:56;;;;;;;;;;;;;;;;;;;;;
2023/08/13 07:32:26;;;;;;;6.70;3.17;;;;;;;;;;5034598;28;20032;-77
2023/08/13 07:34:53;;;;;;;4.45;2.58;;;;;;;;;;5016656;28;20029;-76
2023/08/13 07:37:19;;;;;;;7.35;3.13;;;;;;;;;;5032965;28;20037;-77
2023/08/13 07:39:46;;;;;;;3.28;2.97;;;;;;;;;;5032115;28;20029;-75
2023/08/13 07:42:28;;;;;;;3.30;2.67;;;;;;;;;;5014647;28;20076;-76
2023/08/13 07:44:55;;;;;;;4.50;2.08;;;;;;;;;;5015864;28;20657;-76
2023/08/13 07:47:21;;;;;;;4.75;2.72;;;;;;;;;;5031597;28;20140;-76
2023/08/13 07:49:47;;;;;;;4.88;2.42;;;;;;;;;;5031604;28;20601;-76
2023/08/13 07:52:13;;;;;;;3.72;2.25;;;;;;;;;;5014846;28;20403;-77
2023/08/13 07:54:41;;;;;;;2.42;2.10;;;;;;;;;;5032725;28;20480;-76
2023/08/13 07:57:09;;;;;;;7.00;2.50;;;;;;;;;;5015016;28;20120;-76
2023/08/13 07:59:35;;;;;;;3.30;2.25;;;;;;;;;;5032015;28;20436;-77
2023/08/13 08:02:04;;;;;;;2.90;2.03;;;;;;;;;;5032888;28;20375;-76
2023/08/13 08:04:30;;;;;;;2.60;2.30;;;;;;;;;;5030961;28;20022;-77
2023/08/13 08:06:56;;;;;;;5.05;2.22;;;;;;;;;;5031318;28;20417;-76
2023/08/13 08:09:22;;;;;;;3.55;2.70;;;;;;;;;;5032198;28;20025;-76
2023/08/13 08:11:48;;;;;;;4.13;3.28;;;;;;;;;;5032324;28;20366;-77
2023/08/13 08:14:13;;;;;;;2.63;2.42;;;;;;;;;;5032612;28;20499;-77
2023/08/13 08:16:39;;;;;;;3.92;2.80;;;;;;;;;;5014766;28;20029;-76
2023/08/13 08:19:09;;;;;;;4.68;2.42;;;;;;;;;;5031435;28;20075;-77
2023/08/13 08:21:34;;;;;;;4.50;2.78;;;;;;;;;;5030888;28;20029;-76
2023/08/13 08:24:02;;;;;;;4.55;2.97;;;;;;;;;;5031118;28;20032;-74
2023/08/13 08:26:28;;;;;;;3.40;2.45;;;;;;;;;;5030620;28;20064;-76
2023/08/13 08:28:54;;;;;;;5.95;2.60;;;;;;;;;;5031629;28;20450;-76
2023/08/13 08:31:20;;;;;;;4.43;3.00;;;;;;;;;;5032405;28;20025;-76
2023/08/13 08:33:49;;;;;;;3.60;2.53;;;;;;;;;;5014651;28;20026;-76
2023/08/13 08:36:14;;;;;;;6.40;2.67;;;;;;;;;;5030976;28;20069;-76
2023/08/13 08:38:40;;;;;;;3.33;2.20;;;;;;;;;;5031961;28;20111;-77
2023/08/13 08:41:07;;;;;;;2.63;2.10;;;;;;;;;;5030868;28;20477;-75
2023/08/13 08:43:38;;;;;;;5.07;2.45;;;;;;;;;;5032407;28;20052;-75
2023/08/13 08:46:08;;;;;;;3.88;2.70;;;;;;;;;;5031825;28;20106;-76
2023/08/13 08:48:35;;;;;;;3.97;2.50;;;;;;;;;;5031348;28;20724;-76
2023/08/13 08:51:01;;;;;;;5.18;2.53;;;;;;;;;;5030688;28;20470;-76
2023/08/13 08:53:29;;;;;;;3.92;2.78;;;;;;;;;;5031917;28;20022;-77
2023/08/13 08:55:54;;;;;;;4.32;2.72;;;;;;;;;;5030639;28;20060;-76
2023/08/13 08:58:20;;;;;;;3.95;2.58;;;;;;;;;;5030583;28;20494;-76
2023/08/13 09:00:47;;;;;;;6.50;2.83;;;;;;;;;;5031647;28;20068;-76
2023/08/13 09:03:13;;;;;;;5.40;2.83;;;;;;;;;;5031528;28;20155;-77
2023/08/13 09:05:38;;;;;;;3.42;2.70;;;;;;;;;;5032426;28;20560;-75
2023/08/13 09:08:13;;;;;;;3.03;2.47;;;;;;;;;;5014162;28;20113;-76
2023/08/13 09:10:43;;;;;;;3.47;2.40;;;;;;;;;;5030402;28;20361;-76
2023/08/13 09:13:09;;;;;;;4.28;2.75;;;;;;;;;;5029882;28;20473;-76
2023/08/13 09:15:49;;;;;;;7.95;2.83;;;;;;;;;;5030061;28;20132;-77
2023/08/13 09:18:15;;;;;;;4.18;1.88;;;;;;;;;;5030959;28;20033;-77
2023/08/13 09:20:45;;;;;;;19.77;4.32;;;;;;;;;;5031177;28;20030;-77
2023/08/13 09:23:21;;;;;;;4.95;2.40;;;;;;;;;;5013475;28;20052;-77
2023/08/13 09:25:51;;;;;;;3.63;2.20;;;;;;;;;;5011163;28;20049;-75
2023/08/13 09:28:17;;;;;;;3.72;2.70;;;;;;;;;;5010263;28;20100;-76
2023/08/13 09:30:44;;;;;;;6.60;2.30;;;;;;;;;;5011359;28;20029;-76
2023/08/13 09:33:14;;;;;;;2.35;2.15;;;;;;;;;;5026476;28;20080;-75
2023/08/13 09:35:41;;;;;;;3.85;2.47;;;;;;;;;;5010077;28;20029;-76
2023/08/13 09:38:07;;;;;;;8.93;2.10;;;;;;;;;;5009924;28;20030;-76
2023/08/13 09:40:35;;;;;;;9.50;2.30;;;;;;;;;;5026490;28;20037;-76
2023/08/13 09:43:08;;;;;;;3.50;2.10;;;;;;;;;;5027311;28;20486;-76
2023/08/13 09:45:36;;;;;;;1.90;1.75;;;;;;;;;;5010686;28;20501;-76
2023/08/13 09:48:06;;;;;;;3.83;2.67;;;;;;;;;;5026909;28;20025;-76
2023/08/13 09:50:52;;;;;;;5.85;2.17;;;;;;;;;;5012335;28;20113;-76
2023/08/13 09:53:20;;;;;;;2.72;2.45;;;;;;;;;;5016122;28;20026;-76
2023/08/13 09:55:54;;;;;;;4.18;2.30;;;;;;;;;;5015735;28;20053;-76
2023/08/13 09:58:20;;;;;;;7.97;2.50;;;;;;;;;;5016359;28;20022;-77
2023/08/13 10:00:52;;;;;;;2.92;1.90;;;;;;;;;;5015744;28;20045;-76
2023/08/13 10:03:18;;;;;;;3.92;1.70;;;;;;;;;;5014311;28;20116;-77
2023/08/13 10:05:45;;;;;;;5.10;1.83;;;;;;;;;;5014566;28;20037;-76
2023/08/13 10:08:13;;;;;;;4.07;1.75;;;;;;;;;;4998039;28;20375;-75
2023/08/13 10:10:41;;;;;;;2.30;1.95;;;;;;;;;;5015965;28;20101;-76
2023/08/13 10:13:07;;;;;;;2.03;1.83;;;;;;;;;;5015092;28;20025;-76
2023/08/13 10:15:35;;;;;;;1.33;1.20;;;;;;;;;;5030118;28;20022;-76
2023/08/13 10:18:02;;;;;;;1.77;1.55;;;;;;;;;;5013257;28;20030;-76
2023/08/13 10:20:29;;;;;;;1.60;1.50;;;;;;;;;;5030194;28;20029;-76
2023/08/13 10:23:01;;;;;;;1.35;1.25;;;;;;;;;;5014799;28;20112;-76
2023/08/13 10:25:28;;;;;;;2.10;1.55;;;;;;;;;;5013034;28;20105;-77
2023/08/13 10:27:55;;;;;;;1.75;1.30;;;;;;;;;;5030103;28;20038;-77
2023/08/13 10:30:22;;;;;;;2.80;1.38;;;;;;;;;;5015619;28;20362;-77
2023/08/13 10:33:01;;;;;;;1.10;1.00;;;;;;;;;;5015389;28;20018;-76
2023/08/13 10:35:30;;;;;;;3.20;1.33;;;;;;;;;;5013540;28;20041;-77
2023/08/13 10:38:00;;;;;;;3.60;1.30;;;;;;;;;;5014095;28;20037;-77
2023/08/13 10:40:26;;;;;;;2.10;1.13;;;;;;;;;;5014375;28;20360;-76
2023/08/13 10:42:55;;;;;;;4.13;1.25;;;;;;;;;;5030203;28;20034;-77
2023/08/13 10:45:27;;;;;;;3.72;1.33;;;;;;;;;;5015246;28;20029;-76
2023/08/13 10:48:00;;;;;;;2.25;1.30;;;;;;;;;;4997025;28;20113;-77
2023/08/13 10:50:31;;;;;;;2.10;1.33;;;;;;;;;;5014601;28;20501;-77
2023/08/13 10:53:01;;;;;;;1.75;1.25;;;;;;;;;;5014807;28;20014;-76
2023/08/13 10:55:30;;;;;;;1.60;1.50;;;;;;;;;;5014274;28;20025;-78
2023/08/13 10:57:56;;;;;;;1.42;1.33;;;;;;;;;;5014859;28;20096;-77
2023/08/13 11:00:24;;;;;;;5.03;1.58;;;;;;;;;;5014848;28;20021;-75
2023/08/13 11:02:58;;;;;;;3.17;1.63;;;;;;;;;;5030209;28;20034;-77
2023/08/13 11:05:24;;;;;;;1.42;1.17;;;;;;;;;;5014196;28;20029;-77
2023/08/13 11:07:51;;;;;;;9.48;1.63;;;;;;;;;;5015379;28;20061;-77
2023/08/13 11:10:19;;;;;;;1.67;1.15;;;;;;;;;;5014367;28;20042;-76
2023/08/13 11:12:49;;;;;;;2.78;1.17;;;;;;;;;;4998721;28;20022;-76
2023/08/13 11:15:16;;;;;;;1.90;1.08;;;;;;;;;;5019881;28;20168;-76
2023/08/13 11:17:46;;;;;;;2.05;1.48;;;;;;;;;;5004645;28;20041;-76
2023/08/13 11:20:13;;;;;;;1.33;1.23;;;;;;;;;;5037176;28;20037;-76
2023/08/13 11:22:40;;;;;;;4.72;1.50;;;;;;;;;;5018435;28;20065;-77
2023/08/13 11:25:08;;;;;;;5.07;1.60;;;;;;;;;;5019329;28;20025;-77
2023/08/13 11:27:35;;;;;;;2.88;1.48;;;;;;;;;;5019521;28;20026;-76
2023/08/13 11:30:01;;;;;;;3.25;1.27;;;;;;;;;;5016647;28;20069;-76
2023/08/13 11:32:27;;;;;;;3.35;1.70;;;;;;;;;;5020195;28;20029;-76
2023/08/13 11:34:53;;;;;;;2.50;1.50;;;;;;;;;;5025572;28;20034;-76
2023/08/13 11:37:19;;;;;;;1.08;0.95;;;;;;;;;;5029602;28;20036;-77
2023/08/13 11:39:45;;;;;;;0.98;0.98;;;;;;;;;;5024084;28;20037;-75
2023/08/13 11:42:11;;;;;;;1.95;1.00;;;;;;;;;;5021935;28;20052;-76
2023/08/13 11:44:37;;;;;;;2.55;1.20;;;;;;;;;;5016316;28;20029;-76
2023/08/13 11:47:04;;;;;;;3.83;0.90;;;;;;;;;;5015961;28;20025;-74
2023/08/13 11:49:31;;;;;;;2.63;0.65;;;;;;;;;;5031980;28;20116;-76
2023/08/13 11:51:58;;;;;;;0.85;0.80;;;;;;;;;;5018386;28;20049;-76
2023/08/13 11:54:24;;;;;;;1.48;1.00;;;;;;;;;;5018997;28;20032;-76
2023/08/13 11:56:54;;;;;;;1.00;0.90;;;;;;;;;;5005957;28;20034;-78
2023/08/13 11:59:25;;;;;;;1.45;1.02;;;;;;;;;;5024102;28;20026;-75
2023/08/13 12:01:54;;;;;;;1.90;0.75;;;;;;;;;;5038914;28;20386;-77
2023/08/13 12:04:21;;;;;;;3.50;1.20;;;;;;;;;;5017288;28;20058;-76
2023/08/13 12:06:47;;;;;;;1.35;0.82;;;;;;;;;;5014414;28;20030;-78
2023/08/13 12:09:13;;;;;;;2.53;1.20;;;;;;;;;;5014389;28;20024;-76
2023/08/13 12:11:40;;;;;;;1.75;1.10;;;;;;;;;;5014311;28;20030;-77
2023/08/13 12:14:07;;;;;;;3.08;0.90;;;;;;;;;;5014082;28;20030;-77
2023/08/13 12:16:33;;;;;;;2.33;1.10;;;;;;;;;;5011816;28;20049;-77
2023/08/13 12:19:00;;;;;;;1.30;1.00;;;;;;;;;;5013987;28;20029;-76
2023/08/13 12:21:26;;;;;;;1.58;0.82;;;;;;;;;;4995710;28;20068;-77
2023/08/13 12:23:52;;;;;;;0.98;0.75;;;;;;;;;;5011895;28;20021;-76
2023/08/13 12:26:19;;;;;;;0.60;0.60;;;;;;;;;;5006797;28;20099;-77
2023/08/13 12:28:50;;;;;;;3.42;1.20;;;;;;;;;;5032867;28;20029;-76
2023/08/13 12:31:20;;;;;;;1.67;1.08;;;;;;;;;;5031653;28;20030;-76
2023/08/13 12:33:47;;;;;;;0.93;0.77;;;;;;;;;;5032231;28;20029;-76
2023/08/13 12:36:13;;;;;;;1.50;1.02;;;;;;;;;;5032918;28;20028;-76
2023/08/13 12:38:40;;;;;;;1.02;0.85;;;;;;;;;;5031521;28;20124;-76
2023/08/13 12:41:07;;;;;;;1.58;1.00;;;;;;;;;;5033061;28;20075;-76
2023/08/13 12:43:36;;;;;;;2.38;1.20;;;;;;;;;;5032055;28;20362;-76
2023/08/13 12:46:06;;;;;;;1.73;1.17;;;;;;;;;;5034902;28;20022;-76
2023/08/13 12:48:35;;;;;;;3.40;1.10;;;;;;;;;;5033981;28;20026;-77
2023/08/13 12:51:02;;;;;;;1.67;1.20;;;;;;;;;;5031806;28;20526;-76
2023/08/13 12:53:29;;;;;;;6.88;2.10;;;;;;;;;;5034317;28;20481;-76
2023/08/13 12:55:55;;;;;;;2.95;1.45;;;;;;;;;;5016529;28;20064;-76
2023/08/13 12:58:21;;;;;;;1.13;1.05;;;;;;;;;;5034178;28;20497;-76
2023/08/13 13:00:47;;;;;;;2.38;1.48;;;;;;;;;;5032449;28;20022;-76
2023/08/13 13:03:13;;;;;;;2.55;1.50;;;;;;;;;;5014617;28;20085;-77
2023/08/13 13:05:39;;;;;;;4.03;1.60;;;;;;;;;;5031748;28;20035;-77
2023/08/13 13:08:05;;;;;;;2.22;1.17;;;;;;;;;;5029839;28;20485;-77
2023/08/13 13:10:31;;;;;;;2.70;1.83;;;;;;;;;;5030154;28;20052;-77
2023/08/13 13:12:57;;;;;;;3.33;1.98;;;;;;;;;;5013570;28;20053;-76
2023/08/13 13:15:23;;;;;;;4.22;1.38;;;;;;;;;;5031495;28;20037;-77
2023/08/13 13:17:48;;;;;;;2.40;1.67;;;;;;;;;;5031417;28;20390;-75
2023/08/13 13:20:18;;;;;;;3.95;1.75;;;;;;;;;;5031509;28;20052;-76
2023/08/13 13:22:43;;;;;;;6.25;1.75;;;;;;;;;;5029922;28;20071;-76
2023/08/13 13:25:11;;;;;;;2.88;1.70;;;;;;;;;;5030492;28;20096;-75
2023/08/13 13:27:36;;;;;;;3.67;1.27;;;;;;;;;;5029624;28;20032;-77
2023/08/13 13:30:06;;;;;;;3.67;1.98;;;;;;;;;;5031284;28;20030;-76
2023/08/13 13:32:32;;;;;;;3.43;1.70;;;;;;;;;;5030292;28;20057;-76
2023/08/13 13:34:58;;;;;;;2.38;1.90;;;;;;;;;;5031211;28;20033;-77
2023/08/13 13:37:24;;;;;;;9.20;1.98;;;;;;;;;;5013645;28;20351;-77
2023/08/13 13:39:50;;;;;;;1.85;1.55;;;;;;;;;;5014255;28;20036;-76
2023/08/13 13:42:15;;;;;;;5.30;1.60;;;;;;;;;;5029978;28;20108;-77
2023/08/13 13:44:44;;;;;;;2.42;1.80;;;;;;;;;;5031922;28;20477;-78
2023/08/13 13:47:10;;;;;;;7.75;2.15;;;;;;;;;;5031807;28;20038;-76
2023/08/13 13:49:35;;;;;;;3.40;1.83;;;;;;;;;;5031140;28;20500;-78
2023/08/13 13:52:01;;;;;;;4.40;2.28;;;;;;;;;;5031082;28;20076;-76
2023/08/13 13:54:30;;;;;;;7.30;1.75;;;;;;;;;;5013161;28;20025;-76
2023/08/13 13:56:57;;;;;;;4.28;2.30;;;;;;;;;;5030450;28;20112;-77
2023/08/13 13:59:24;;;;;;;4.38;2.42;;;;;;;;;;5013038;28;20025;-76
2023/08/13 14:01:50;;;;;;;7.35;2.33;;;;;;;;;;5012897;28;20044;-76
2023/08/13 14:04:16;;;;;;;5.03;2.03;;;;;;;;;;5029751;28;20084;-77
2023/08/13 14:06:42;;;;;;;16.38;2.90;;;;;;;;;;5031412;28;20025;-77
2023/08/13 14:09:09;;;;;;;2.42;1.50;;;;;;;;;;5031220;28;20525;-77
2023/08/13 14:11:35;;;;;;;3.75;1.65;;;;;;;;;;5030801;28;20482;-76
2023/08/13 14:14:02;;;;;;;3.90;1.80;;;;;;;;;;5031079;28;20037;-77
2023/08/13 14:16:27;;;;;;;7.60;2.20;;;;;;;;;;5030523;28;20021;-76
2023/08/13 14:18:54;;;;;;;5.93;1.90;;;;;;;;;;5029190;28;20120;-76
2023/08/13 14:21:19;;;;;;;6.00;1.85;;;;;;;;;;5012967;28;20136;-77
2023/08/13 14:23:45;;;;;;;3.33;2.20;;;;;;;;;;5030738;28;20040;-76
2023/08/13 14:26:11;;;;;;;2.95;1.77;;;;;;;;;;5030702;28;20475;-76
2023/08/13 14:28:37;;;;;;;2.90;1.55;;;;;;;;;;5030954;28;20036;-77
2023/08/13 14:31:03;;;;;;;5.43;2.10;;;;;;;;;;5030466;28;20112;-77
2023/08/13 14:33:29;;;;;;;7.47;2.00;;;;;;;;;;5032213;28;20443;-76
2023/08/13 14:35:54;;;;;;;3.83;1.75;;;;;;;;;;5030482;28;20047;-77
2023/08/13 14:38:20;;;;;;;6.65;2.40;;;;;;;;;;5033454;28;20120;-76
2023/08/13 14:40:46;;;;;;;5.88;1.80;;;;;;;;;;5034038;28;20036;-76
2023/08/13 14:43:12;;;;;;;6.53;2.33;;;;;;;;;;5018185;28;20021;-75
2023/08/13 14:45:38;;;;;;;11.52;3.08;;;;;;;;;;5034917;28;20037;-77
2023/08/13 14:48:05;;;;;;;3.92;2.05;;;;;;;;;;5035191;28;20151;-77